Paramount Helsinki — 2CWB3 — position and weather

sailwx.info

Track history (hours):
 
Tides and Currents Weather Stations Pressure Air Temp Water Temp Dewpoint Dewpoint Depression Visibility Wind Speed Wind Dir Waves Ship Positions

Paramount Helsinki

Last reported at 2017-Apr-26 21:18 UTC. Time now 2017-Apr-27 09:08 UTC.
Position N 38°31' W 074°39'.

Length 250 m; draft 11 m.

Type: Tanker. MMSI: 235076275.

Date/timePositionNaut miles runAvg speedWind from/ knotsBaromVisibWave heightAir tempDewpointWater temp
2017-Apr-26 21:18N 38°31' W 074°39'2 1.4
2017-Apr-26 19:47N 38°33' W 074°41'0 1.0
2017-Apr-26 19:17N 38°33' W 074°41'6 2.5
2017-Apr-26 16:59N 38°34' W 074°33'1 1.1
2017-Apr-26 15:42N 38°34' W 074°32'1 1.8
2017-Apr-26 15:17N 38°33' W 074°31'1 1.9
2017-Apr-26 14:56N 38°33' W 074°30'2 1.7
2017-Apr-26 13:31N 38°31' W 074°28'2 2.0
2017-Apr-26 12:44N 38°30' W 074°27'1 2.3
2017-Apr-26 12:30N 38°30' W 074°26'4 0.3
2017-Apr-25 23:22N 38°33' W 074°30'1 1.9
2017-Apr-25 22:58N 38°34' W 074°29'6 0.6
2017-Apr-25 11:24N 38°33' W 074°37'1 1.3
2017-Apr-25 10:54N 38°33' W 074°37'1 1.4
2017-Apr-25 10:27N 38°33' W 074°36'1 1.4
2017-Apr-25 09:37N 38°34' W 074°35'0 1.4
2017-Apr-25 09:30N 38°34' W 074°35'1 1.4
2017-Apr-25 08:59N 38°34' W 074°34'2 1.5
2017-Apr-25 07:37N 38°35' W 074°31'0 1.1
2017-Apr-25 07:15N 38°35' W 074°31'9 0.7
2017-Apr-24 18:04N 38°33' W 074°42'0 0.1
2017-Apr-24 17:55N 38°33' W 074°42'0 0.0
2017-Apr-24 17:28N 38°33' W 074°42'0 0.0
2017-Apr-24 16:25N 38°33' W 074°42'0 0.0
2017-Apr-24 14:34N 38°33' W 074°42'0 0.1
2017-Apr-24 14:28N 38°33' W 074°42'0 0.0
2017-Apr-24 13:22N 38°33' W 074°42'0 0.0
2017-Apr-24 12:58N 38°33' W 074°42'0 0.0
2017-Apr-24 12:28N 38°33' W 074°42'0 0.0
2017-Apr-24 11:58N 38°33' W 074°42'0 0.0
2017-Apr-24 11:28N 38°33' W 074°42'0 0.0
2017-Apr-24 10:58N 38°33' W 074°42'0 0.0
2017-Apr-24 10:28N 38°33' W 074°42'0 0.0
2017-Apr-24 09:55N 38°33' W 074°42'0 0.0
2017-Apr-24 09:28N 38°33' W 074°42'0 0.0
2017-Apr-24 08:52N 38°33' W 074°42'0 0.0
2017-Apr-24 08:25N 38°33' W 074°42'0 0.0
2017-Apr-24 07:58N 38°33' W 074°42'0 0.0
2017-Apr-24 07:22N 38°33' W 074°42'0 0.0
2017-Apr-24 04:46N 38°33' W 074°42'0 0.0
2017-Apr-24 04:28N 38°33' W 074°42'0 0.0
2017-Apr-24 03:55N 38°33' W 074°42'0 0.0
2017-Apr-24 00:31N 38°33' W 074°42'0 0.1
2017-Apr-24 00:22N 38°33' W 074°42'10 0.5
2017-Apr-23 06:39N 38°28' W 074°31'0 0.7
2017-Apr-23 06:04N 38°29' W 074°31'0 0.6
2017-Apr-23 05:28N 38°29' W 074°30'1 0.6
2017-Apr-23 04:12N 38°29' W 074°29'1 0.9
2017-Apr-23 02:59N 38°29' W 074°28'0 0.8
2017-Apr-23 02:28N 38°29' W 074°28'2 0.9
2017-Apr-23 00:34N 38°31' W 074°26'5 0.5
2017-Apr-22 14:32N 38°33' W 074°31'1 3.2
2017-Apr-22 14:06N 38°34' W 074°33'7 1.4
2017-Apr-22 08:55N 38°33' W 074°42'0 0.0
2017-Apr-22 06:16N 38°33' W 074°42'0 0.0
2017-Apr-21 01:28N 38°33' W 074°42'0 0.1
2017-Apr-21 00:58N 38°33' W 074°42'0 0.0
2017-Apr-20 23:34N 38°33' W 074°42'0 0.0
2017-Apr-20 23:28N 38°33' W 074°42'13 0.8
2017-Apr-20 07:40N 38°40' W 074°56'213.0
2017-Apr-20 07:30N 38°42' W 074°58'612.6
2017-Apr-20 07:00N 38°47' W 075°03'4 7.9
2017-Apr-20 06:27N 38°51' W 075°05'4 9.7
2017-Apr-20 06:00N 38°55' W 075°06'612.0
2017-Apr-20 05:30N 39°01' W 075°09'713.4
2017-Apr-20 05:00N 39°07' W 075°13'713.8
2017-Apr-20 04:30N 39°13' W 075°17'714.6
2017-Apr-20 04:00N 39°18' W 075°23'815.6
2017-Apr-20 03:31N 39°24' W 075°30'714.0
2017-Apr-20 03:00N 39°31' W 075°33'713.8
2017-Apr-20 02:31N 39°38' W 075°35'612.8
2017-Apr-20 02:00N 39°43' W 075°30'611.7
2017-Apr-20 01:30N 39°48' W 075°26'5 9.8
2017-Apr-20 01:00N 39°51' W 075°21'3 6.6
2017-Apr-20 00:30N 39°51' W 075°16'0 0.2
2017-Apr-19 23:58N 39°51' W 075°16'0 0.0
2017-Apr-19 23:28N 39°51' W 075°16'0 0.0
2017-Apr-19 22:58N 39°51' W 075°16'0 0.0
2017-Apr-19 22:25N 39°51' W 075°16'0 0.0
2017-Apr-19 21:52N 39°51' W 075°16'0 0.0
2017-Apr-19 21:28N 39°51' W 075°16'0 0.0
2017-Apr-19 20:58N 39°51' W 075°16'0 0.0
2017-Apr-19 20:28N 39°51' W 075°16'0 0.0
2017-Apr-19 19:58N 39°51' W 075°16'0 0.0
2017-Apr-19 19:28N 39°51' W 075°16'0 0.0
2017-Apr-19 18:58N 39°51' W 075°16'0 0.0
2017-Apr-19 18:28N 39°51' W 075°16'0 0.0
2017-Apr-19 17:58N 39°51' W 075°16'0 0.0
2017-Apr-19 17:28N 39°51' W 075°16'0 0.0
2017-Apr-19 16:58N 39°51' W 075°16'0 0.0
2017-Apr-19 16:28N 39°51' W 075°16'0 0.0
2017-Apr-19 15:58N 39°51' W 075°16'0 0.0
2017-Apr-19 15:28N 39°51' W 075°16'0 0.0
2017-Apr-19 14:58N 39°51' W 075°16'0 0.0
2017-Apr-19 14:28N 39°51' W 075°16'0 0.0
2017-Apr-19 13:58N 39°51' W 075°16'0 0.0
2017-Apr-19 13:22N 39°51' W 075°16'0 0.0
2017-Apr-19 12:58N 39°51' W 075°16'0 0.0
2017-Apr-19 12:28N 39°51' W 075°16'0 0.0
2017-Apr-19 11:58N 39°51' W 075°16'0 0.0
2017-Apr-19 11:28N 39°51' W 075°16'0 0.0
2017-Apr-19 10:58N 39°51' W 075°16'0 0.0
2017-Apr-19 10:25N 39°51' W 075°16'0 0.0
2017-Apr-19 09:58N 39°51' W 075°16'0 0.0
2017-Apr-19 09:28N 39°51' W 075°16'0 0.0
2017-Apr-19 08:55N 39°51' W 075°16'0 0.0
2017-Apr-19 08:25N 39°51' W 075°16'0 0.0
2017-Apr-19 07:55N 39°51' W 075°16'0 0.0
2017-Apr-19 07:28N 39°51' W 075°16'0 0.0
2017-Apr-19 06:58N 39°51' W 075°16'0 0.0
2017-Apr-19 06:28N 39°51' W 075°16'0 0.0
2017-Apr-19 05:55N 39°51' W 075°16'0 0.0
2017-Apr-19 05:28N 39°51' W 075°16'0 0.0
2017-Apr-19 04:58N 39°51' W 075°16'0 0.0
2017-Apr-19 04:28N 39°51' W 075°16'0 0.0
2017-Apr-19 03:58N 39°51' W 075°16'0 0.0
2017-Apr-19 03:19N 39°51' W 075°16'0 0.0
2017-Apr-19 02:58N 39°51' W 075°16'0 0.0
2017-Apr-19 02:28N 39°51' W 075°16'0 0.0
2017-Apr-19 01:58N 39°51' W 075°16'0 0.0
2017-Apr-19 01:28N 39°51' W 075°16'0 0.0
2017-Apr-19 00:59N 39°51' W 075°16'0 0.9
2017-Apr-19 00:30N 39°51' W 075°17'3 5.3
2017-Apr-19 00:00N 39°51' W 075°20'5 9.3
2017-Apr-18 23:30N 39°48' W 075°25'611.4
2017-Apr-18 23:00N 39°44' W 075°30'611.7
2017-Apr-18 22:30N 39°39' W 075°33'611.1
2017-Apr-18 22:00N 39°33' W 075°32'612.7
2017-Apr-18 21:30N 39°27' W 075°33'713.4
2017-Apr-18 21:00N 39°22' W 075°27'713.3
2017-Apr-18 20:30N 39°17' W 075°22'612.9
2017-Apr-18 20:00N 39°12' W 075°17'510.7
2017-Apr-18 19:30N 39°07' W 075°13'613.0
2017-Apr-18 19:00N 39°01' W 075°09'713.4
2017-Apr-18 18:30N 38°55' W 075°06'612.0
2017-Apr-18 18:00N 38°50' W 075°03'27 2.1
2017-Apr-18 05:12N 38°31' W 074°39'0 0.1
2017-Apr-18 04:57N 38°31' W 074°39'0 0.0
2017-Apr-17 21:18N 38°31' W 074°38'0 0.0
2017-Apr-17 20:57N 38°31' W 074°38'  
Track history (hours):
 
Tides and Currents Weather Stations Pressure Air Temp Water Temp Dewpoint Dewpoint Depression Visibility Wind Speed Wind Dir Waves Ship Positions

Paramount Helsinki

Last reported at 2017-Apr-26 21:18 UTC. Time now 2017-Apr-27 09:08 UTC.
Position N 38°31' W 074°39'.

Length 250 m; draft 11 m.

Type: Tanker. MMSI: 235076275.

Date/timePositionNaut miles runAvg speedWind from/ knotsBaromVisibWave heightAir tempDewpointWater temp
2017-Apr-26 21:18N 38°31' W 074°39'2 1.4
2017-Apr-26 19:47N 38°33' W 074°41'0 1.0
2017-Apr-26 19:17N 38°33' W 074°41'6 2.5
2017-Apr-26 16:59N 38°34' W 074°33'1 1.1
2017-Apr-26 15:42N 38°34' W 074°32'1 1.8
2017-Apr-26 15:17N 38°33' W 074°31'1 1.9
2017-Apr-26 14:56N 38°33' W 074°30'2 1.7
2017-Apr-26 13:31N 38°31' W 074°28'2 2.0
2017-Apr-26 12:44N 38°30' W 074°27'1 2.3
2017-Apr-26 12:30N 38°30' W 074°26'4 0.3
2017-Apr-25 23:22N 38°33' W 074°30'1 1.9
2017-Apr-25 22:58N 38°34' W 074°29'6 0.6
2017-Apr-25 11:24N 38°33' W 074°37'1 1.3
2017-Apr-25 10:54N 38°33' W 074°37'1 1.4
2017-Apr-25 10:27N 38°33' W 074°36'1 1.4
2017-Apr-25 09:37N 38°34' W 074°35'0 1.4
2017-Apr-25 09:30N 38°34' W 074°35'1 1.4
2017-Apr-25 08:59N 38°34' W 074°34'2 1.5
2017-Apr-25 07:37N 38°35' W 074°31'0 1.1
2017-Apr-25 07:15N 38°35' W 074°31'9 0.7
2017-Apr-24 18:04N 38°33' W 074°42'0 0.1
2017-Apr-24 17:55N 38°33' W 074°42'0 0.0
2017-Apr-24 17:28N 38°33' W 074°42'0 0.0
2017-Apr-24 16:25N 38°33' W 074°42'0 0.0
2017-Apr-24 14:34N 38°33' W 074°42'0 0.1
2017-Apr-24 14:28N 38°33' W 074°42'0 0.0
2017-Apr-24 13:22N 38°33' W 074°42'0 0.0
2017-Apr-24 12:58N 38°33' W 074°42'0 0.0
2017-Apr-24 12:28N 38°33' W 074°42'0 0.0
2017-Apr-24 11:58N 38°33' W 074°42'0 0.0
2017-Apr-24 11:28N 38°33' W 074°42'0 0.0
2017-Apr-24 10:58N 38°33' W 074°42'0 0.0
2017-Apr-24 10:28N 38°33' W 074°42'0 0.0
2017-Apr-24 09:55N 38°33' W 074°42'0 0.0
2017-Apr-24 09:28N 38°33' W 074°42'0 0.0
2017-Apr-24 08:52N 38°33' W 074°42'0 0.0
2017-Apr-24 08:25N 38°33' W 074°42'0 0.0
2017-Apr-24 07:58N 38°33' W 074°42'0 0.0
2017-Apr-24 07:22N 38°33' W 074°42'0 0.0
2017-Apr-24 04:46N 38°33' W 074°42'0 0.0
2017-Apr-24 04:28N 38°33' W 074°42'0 0.0
2017-Apr-24 03:55N 38°33' W 074°42'0 0.0
2017-Apr-24 00:31N 38°33' W 074°42'0 0.1
2017-Apr-24 00:22N 38°33' W 074°42'10 0.5
2017-Apr-23 06:39N 38°28' W 074°31'0 0.7
2017-Apr-23 06:04N 38°29' W 074°31'0 0.6
2017-Apr-23 05:28N 38°29' W 074°30'1 0.6
2017-Apr-23 04:12N 38°29' W 074°29'1 0.9
2017-Apr-23 02:59N 38°29' W 074°28'0 0.8
2017-Apr-23 02:28N 38°29' W 074°28'2 0.9
2017-Apr-23 00:34N 38°31' W 074°26'5 0.5
2017-Apr-22 14:32N 38°33' W 074°31'1 3.2
2017-Apr-22 14:06N 38°34' W 074°33'7 1.4
2017-Apr-22 08:55N 38°33' W 074°42'0 0.0
2017-Apr-22 06:16N 38°33' W 074°42'0 0.0
2017-Apr-21 01:28N 38°33' W 074°42'0 0.1
2017-Apr-21 00:58N 38°33' W 074°42'0 0.0
2017-Apr-20 23:34N 38°33' W 074°42'0 0.0
2017-Apr-20 23:28N 38°33' W 074°42'13 0.8
2017-Apr-20 07:40N 38°40' W 074°56'213.0
2017-Apr-20 07:30N 38°42' W 074°58'612.6
2017-Apr-20 07:00N 38°47' W 075°03'4 7.9
2017-Apr-20 06:27N 38°51' W 075°05'4 9.7
2017-Apr-20 06:00N 38°55' W 075°06'612.0
2017-Apr-20 05:30N 39°01' W 075°09'713.4
2017-Apr-20 05:00N 39°07' W 075°13'713.8
2017-Apr-20 04:30N 39°13' W 075°17'714.6
2017-Apr-20 04:00N 39°18' W 075°23'815.6
2017-Apr-20 03:31N 39°24' W 075°30'714.0
2017-Apr-20 03:00N 39°31' W 075°33'713.8
2017-Apr-20 02:31N 39°38' W 075°35'612.8
2017-Apr-20 02:00N 39°43' W 075°30'611.7
2017-Apr-20 01:30N 39°48' W 075°26'5 9.8
2017-Apr-20 01:00N 39°51' W 075°21'3 6.6
2017-Apr-20 00:30N 39°51' W 075°16'0 0.2
2017-Apr-19 23:58N 39°51' W 075°16'0 0.0
2017-Apr-19 23:28N 39°51' W 075°16'0 0.0
2017-Apr-19 22:58N 39°51' W 075°16'0 0.0
2017-Apr-19 22:25N 39°51' W 075°16'0 0.0
2017-Apr-19 21:52N 39°51' W 075°16'0 0.0
2017-Apr-19 21:28N 39°51' W 075°16'0 0.0
2017-Apr-19 20:58N 39°51' W 075°16'0 0.0
2017-Apr-19 20:28N 39°51' W 075°16'0 0.0
2017-Apr-19 19:58N 39°51' W 075°16'0 0.0
2017-Apr-19 19:28N 39°51' W 075°16'0 0.0
2017-Apr-19 18:58N 39°51' W 075°16'0 0.0
2017-Apr-19 18:28N 39°51' W 075°16'0 0.0
2017-Apr-19 17:58N 39°51' W 075°16'0 0.0
2017-Apr-19 17:28N 39°51' W 075°16'0 0.0
2017-Apr-19 16:58N 39°51' W 075°16'0 0.0
2017-Apr-19 16:28N 39°51' W 075°16'0 0.0
2017-Apr-19 15:58N 39°51' W 075°16'0 0.0
2017-Apr-19 15:28N 39°51' W 075°16'0 0.0
2017-Apr-19 14:58N 39°51' W 075°16'0 0.0
2017-Apr-19 14:28N 39°51' W 075°16'0 0.0
2017-Apr-19 13:58N 39°51' W 075°16'0 0.0
2017-Apr-19 13:22N 39°51' W 075°16'0 0.0
2017-Apr-19 12:58N 39°51' W 075°16'0 0.0
2017-Apr-19 12:28N 39°51' W 075°16'0 0.0
2017-Apr-19 11:58N 39°51' W 075°16'0 0.0
2017-Apr-19 11:28N 39°51' W 075°16'0 0.0
2017-Apr-19 10:58N 39°51' W 075°16'0 0.0
2017-Apr-19 10:25N 39°51' W 075°16'0 0.0
2017-Apr-19 09:58N 39°51' W 075°16'0 0.0
2017-Apr-19 09:28N 39°51' W 075°16'0 0.0
2017-Apr-19 08:55N 39°51' W 075°16'0 0.0
2017-Apr-19 08:25N 39°51' W 075°16'0 0.0
2017-Apr-19 07:55N 39°51' W 075°16'0 0.0
2017-Apr-19 07:28N 39°51' W 075°16'0 0.0
2017-Apr-19 06:58N 39°51' W 075°16'0 0.0
2017-Apr-19 06:28N 39°51' W 075°16'0 0.0
2017-Apr-19 05:55N 39°51' W 075°16'0 0.0
2017-Apr-19 05:28N 39°51' W 075°16'0 0.0
2017-Apr-19 04:58N 39°51' W 075°16'0 0.0
2017-Apr-19 04:28N 39°51' W 075°16'0 0.0
2017-Apr-19 03:58N 39°51' W 075°16'0 0.0
2017-Apr-19 03:19N 39°51' W 075°16'0 0.0
2017-Apr-19 02:58N 39°51' W 075°16'0 0.0
2017-Apr-19 02:28N 39°51' W 075°16'0 0.0
2017-Apr-19 01:58N 39°51' W 075°16'0 0.0
2017-Apr-19 01:28N 39°51' W 075°16'0 0.0
2017-Apr-19 00:59N 39°51' W 075°16'0 0.9
2017-Apr-19 00:30N 39°51' W 075°17'3 5.3
2017-Apr-19 00:00N 39°51' W 075°20'5 9.3
2017-Apr-18 23:30N 39°48' W 075°25'611.4
2017-Apr-18 23:00N 39°44' W 075°30'611.7
2017-Apr-18 22:30N 39°39' W 075°33'611.1
2017-Apr-18 22:00N 39°33' W 075°32'612.7
2017-Apr-18 21:30N 39°27' W 075°33'713.4
2017-Apr-18 21:00N 39°22' W 075°27'713.3
2017-Apr-18 20:30N 39°17' W 075°22'612.9
2017-Apr-18 20:00N 39°12' W 075°17'510.7
2017-Apr-18 19:30N 39°07' W 075°13'613.0
2017-Apr-18 19:00N 39°01' W 075°09'713.4
2017-Apr-18 18:30N 38°55' W 075°06'612.0
2017-Apr-18 18:00N 38°50' W 075°03'27 2.1
2017-Apr-18 05:12N 38°31' W 074°39'0 0.1
2017-Apr-18 04:57N 38°31' W 074°39'0 0.0
2017-Apr-17 21:18N 38°31' W 074°38'0 0.0
2017-Apr-17 20:57N 38°31' W 074°38'  

Dump ship's entire track history